Time;durP1;ratioP1;P1;durP2;ratioP2;P2;SDS_P1;SDS_P2;PMS_P1;PMS_P2;Temp;Humidity;BMP_temperature;BMP_pressure;BME280_temperature;BME280_humidity;BME280_pressure;Samples;Min_cycle;Max_cycle;Signal;HPM_P1;HPM_P2
2021/12/07 00:00:41;;;;;;;4.70;4.40;;;6.60;99.90;;;;;;4914986;29;20431;-69
2021/12/07 00:03:07;;;;;;;3.40;3.20;;;6.70;99.90;;;;;;4883044;29;20231;-80
2021/12/07 00:05:33;;;;;;;3.70;3.40;;;6.70;99.90;;;;;;4914367;29;20225;-69
2021/12/07 00:07:59;;;;;;;4.17;3.87;;;6.80;99.90;;;;;;4900089;29;20436;-69
2021/12/07 00:10:25;;;;;;;3.63;3.33;;;6.90;99.90;;;;;;4899642;29;20185;-69
2021/12/07 00:12:51;;;;;;;3.80;3.50;;;6.80;99.90;;;;;;4900451;29;20590;-69
2021/12/07 00:15:21;;;;;;;3.80;3.60;;;6.80;99.90;;;;;;4899064;29;20569;-69
2021/12/07 00:17:47;;;;;;;3.00;2.80;;;6.90;99.90;;;;;;4900166;29;20440;-69
2021/12/07 00:20:16;;;;;;;3.50;3.20;;;6.90;99.90;;;;;;4899250;29;20417;-69
2021/12/07 00:22:43;;;;;;;3.67;3.47;;;6.90;99.90;;;;;;4899984;29;20743;-68
2021/12/07 00:25:10;;;;;;;3.43;3.23;;;7.00;99.90;;;;;;4867214;29;20468;-80
2021/12/07 00:27:36;;;;;;;4.43;4.13;;;7.10;99.90;;;;;;4899691;29;20417;-68
2021/12/07 00:30:04;;;;;;;3.40;3.20;;;7.10;99.90;;;;;;4900019;29;20808;-68
2021/12/07 00:32:33;;;;;;;3.67;3.47;;;7.10;99.90;;;;;;4898780;29;20418;-67
2021/12/07 00:37:28;;;;;;;3.80;3.60;;;7.10;99.90;;;;;;4898693;29;20978;-67
2021/12/07 00:39:55;;;;;;;3.00;2.90;;;7.10;99.90;;;;;;4882942;29;20448;-67
2021/12/07 00:42:22;;;;;;;3.00;2.90;;;7.10;99.90;;;;;;4898392;29;20473;-67
2021/12/07 00:44:48;;;;;;;2.60;2.50;;;7.10;99.90;;;;;;4899470;29;20465;-67
2021/12/07 00:47:14;;;;;;;2.70;2.60;;;7.00;99.90;;;;;;4898292;29;20458;-68
2021/12/07 00:49:40;;;;;;;2.33;2.23;;;7.10;99.90;;;;;;4899056;29;20482;-67
2021/12/07 00:52:06;;;;;;;2.10;2.00;;;7.20;99.90;;;;;;4898483;29;20421;-67
2021/12/07 00:54:32;;;;;;;2.20;2.10;;;7.20;99.90;;;;;;4913199;29;20513;-67
2021/12/07 00:56:58;;;;;;;2.20;2.10;;;7.10;99.90;;;;;;4899016;29;20946;-67
2021/12/07 00:59:25;;;;;;;2.70;2.33;;;7.20;99.90;;;;;;4881830;29;20886;-67
2021/12/07 01:01:51;;;;;;;2.50;2.30;;;7.20;99.90;;;;;;4899130;29;20481;-67
2021/12/07 01:04:17;;;;;;;2.37;2.27;;;7.40;99.90;;;;;;4898324;29;20520;-68
2021/12/07 01:06:48;;;;;;;2.57;2.47;;;7.30;99.90;;;;;;4899223;29;20506;-67
2021/12/07 01:25:50;;;;;;;3.33;3.13;;;7.50;99.90;;;;;;4898854;29;20955;-67
2021/12/07 01:30:51;;;;;;;2.90;2.70;;;7.40;99.90;;;;;;4898808;29;20422;-67
2021/12/07 01:38:40;;;;;;;2.90;2.80;;;7.40;99.90;;;;;;4897886;29;20419;-67
2021/12/07 01:41:28;;;;;;;2.73;2.63;;;7.40;99.90;;;;;;4898709;29;20397;-67
2021/12/07 01:44:48;;;;;;;2.43;2.33;;;7.40;99.90;;;;;;4898610;29;20411;-67
2021/12/07 01:47:06;;;;;;;2.63;2.53;;;7.40;99.90;;;;;;4894202;29;20478;-68
2021/12/07 02:00:37;;;;;;;3.30;3.10;;;7.30;99.90;;;;;;4897470;29;20512;-67
2021/12/07 02:03:03;;;;;;;3.20;3.00;;;7.30;99.90;;;;;;4897964;29;20471;-67
2021/12/07 02:05:29;;;;;;;3.40;3.20;;;7.30;99.90;;;;;;4897461;29;20470;-67
2021/12/07 02:07:54;;;;;;;3.77;3.47;;;7.10;99.90;;;;;;4898057;29;20502;-67
2021/12/07 02:10:24;;;;;;;3.60;3.30;;;7.10;99.90;;;;;;4897197;29;20223;-67
2021/12/07 02:12:54;;;;;;;3.30;3.10;;;7.10;99.90;;;;;;4898095;29;20443;-67
2021/12/07 02:15:24;;;;;;;3.60;3.40;;;7.10;99.90;;;;;;4896940;29;20768;-68
2021/12/07 02:17:51;;;;;;;3.70;3.50;;;7.10;99.90;;;;;;4897910;29;20561;-68
2021/12/07 02:20:19;;;;;;;3.60;3.40;;;7.10;99.90;;;;;;4897395;29;20509;-75
2021/12/07 02:22:45;;;;;;;4.17;3.97;;;7.00;99.90;;;;;;4898261;29;20425;-67
2021/12/07 02:25:14;;;;;;;3.97;3.77;;;7.00;99.90;;;;;;4897744;29;20470;-67
2021/12/07 02:27:40;;;;;;;3.90;3.60;;;7.00;99.90;;;;;;4897183;29;20427;-67
2021/12/07 02:30:12;;;;;;;3.77;3.57;;;7.00;99.90;;;;;;4897738;29;20428;-67
2021/12/07 02:32:38;;;;;;;3.80;3.60;;;6.90;99.90;;;;;;4896643;29;20227;-67
2021/12/07 02:35:04;;;;;;;4.60;4.30;;;6.80;99.90;;;;;;4897417;29;20439;-67
2021/12/07 02:37:35;;;;;;;4.27;3.97;;;6.80;99.90;;;;;;4896790;29;20434;-67
2021/12/07 02:40:01;;;;;;;4.00;3.80;;;6.80;99.90;;;;;;4865568;29;20409;-67
2021/12/07 02:42:27;;;;;;;3.60;3.40;;;6.80;99.90;;;;;;4911334;29;20905;-67
2021/12/07 02:44:53;;;;;;;3.77;3.50;;;6.80;99.90;;;;;;4897413;29;20417;-67
2021/12/07 02:47:20;;;;;;;4.37;4.07;;;6.80;99.90;;;;;;4896855;29;20431;-75
2021/12/07 02:49:46;;;;;;;4.00;3.80;;;6.70;99.90;;;;;;4897522;29;20756;-67
2021/12/07 02:52:13;;;;;;;4.00;3.80;;;6.70;99.90;;;;;;4911930;29;20436;-67
2021/12/07 02:54:49;;;;;;;3.75;3.55;;;6.70;99.90;;;;;;4896580;29;20372;-67
2021/12/07 02:57:20;;;;;;;3.60;3.40;;;6.60;99.90;;;;;;4897446;29;20178;-68
2021/12/07 02:59:52;;;;;;;4.40;4.20;;;6.60;99.90;;;;;;4897161;29;20771;-67
2021/12/07 03:02:19;;;;;;;3.90;3.70;;;6.50;99.90;;;;;;4896872;29;20741;-75
2021/12/07 03:05:25;;;;;;;4.63;4.33;;;6.50;99.90;;;;;;4896788;29;20502;-67
2021/12/07 03:08:40;;;;;;;4.10;3.83;;;6.20;99.90;;;;;;4894454;29;20985;-67
2021/12/07 03:26:42;;;;;;;5.90;5.47;;;6.30;99.90;;;;;;4902567;29;20514;-67
2021/12/07 03:29:08;;;;;;;5.67;5.17;;;6.30;99.90;;;;;;4903234;29;20534;-67
2021/12/07 03:31:34;;;;;;;5.97;5.47;;;6.30;99.90;;;;;;4902275;29;20403;-67
2021/12/07 03:34:01;;;;;;;5.87;5.47;;;6.30;99.90;;;;;;4903246;29;20540;-67
2021/12/07 03:36:27;;;;;;;6.00;5.55;;;6.30;99.90;;;;;;4902482;29;20195;-67
2021/12/07 03:38:53;;;;;;;7.40;6.70;;;6.30;99.90;;;;;;4903384;29;20529;-67
2021/12/07 03:41:20;;;;;;;6.90;6.40;;;6.40;99.90;;;;;;4903040;29;20432;-74
2021/12/07 03:43:47;;;;;;;7.60;6.90;;;6.40;99.90;;;;;;4902837;29;20416;-67
2021/12/07 03:46:13;;;;;;;9.20;8.37;;;6.40;99.90;;;;;;4903182;29;20480;-68
2021/12/07 03:48:40;;;;;;;9.40;8.40;;;6.50;99.90;;;;;;4902435;29;20424;-68
2021/12/07 03:51:06;;;;;;;9.80;8.80;;;6.40;99.90;;;;;;4903171;29;20420;-67
2021/12/07 03:53:32;;;;;;;9.63;8.63;;;6.50;99.90;;;;;;4902621;29;20396;-67
2021/12/07 03:55:59;;;;;;;9.87;8.87;;;6.50;99.90;;;;;;4903121;29;20477;-67
2021/12/07 03:58:25;;;;;;;11.10;9.90;;;6.50;99.90;;;;;;4902084;29;20784;-68
2021/12/07 04:00:51;;;;;;;11.30;10.10;;;6.60;99.90;;;;;;4903358;29;20448;-67
2021/12/07 04:03:18;;;;;;;11.80;10.50;;;6.60;99.90;;;;;;4902416;29;20447;-67
2021/12/07 04:05:49;;;;;;;13.70;11.27;;;6.60;99.90;;;;;;4900911;29;20483;-67
2021/12/07 04:08:21;;;;;;;13.00;10.50;;;6.60;99.90;;;;;;4885315;29;20812;-67
2021/12/07 04:10:47;;;;;;;12.83;10.73;;;6.60;99.90;;;;;;4901645;29;20414;-67
2021/12/07 04:13:13;;;;;;;14.13;12.00;;;6.70;99.90;;;;;;4902036;29;20418;-67
2021/12/07 04:15:40;;;;;;;15.48;13.07;;;6.70;99.90;;;;;;4884191;29;20180;-67
2021/12/07 04:18:06;;;;;;;15.87;12.47;;;6.60;99.90;;;;;;4901977;29;20264;-67
2021/12/07 04:20:33;;;;;;;14.20;12.80;;;6.40;99.90;;;;;;4901189;29;20453;-67
2021/12/07 04:22:58;;;;;;;14.27;12.77;;;6.70;99.90;;;;;;4901660;29;20440;-67
2021/12/07 04:25:24;;;;;;;18.50;13.33;;;6.70;99.90;;;;;;4901515;29;20511;-74
2021/12/07 04:27:52;;;;;;;16.63;12.17;;;6.80;99.90;;;;;;4899260;29;20541;-67
2021/12/07 04:30:27;;;;;;;19.00;12.83;;;6.80;99.90;;;;;;4898912;29;20460;-67
2021/12/07 04:32:53;;;;;;;17.67;13.77;;;6.80;99.90;;;;;;4898898;29;20424;-67
2021/12/07 04:35:19;;;;;;;14.33;12.70;;;6.80;99.90;;;;;;4898242;29;20509;-67
2021/12/07 04:37:45;;;;;;;15.60;13.07;;;6.90;99.90;;;;;;4897864;29;20428;-67
2021/12/07 04:40:15;;;;;;;18.17;12.57;;;6.80;99.90;;;;;;4881710;29;20414;-67
2021/12/07 04:42:42;;;;;;;17.83;12.87;;;6.80;99.90;;;;;;4897347;29;20437;-67
2021/12/07 04:45:14;;;;;;;14.00;11.50;;;6.80;99.90;;;;;;4898508;29;20473;-67
2021/12/07 04:48:01;;;;;;;15.73;11.90;;;6.80;99.90;;;;;;4897775;29;20469;-67
2021/12/07 04:58:31;;;;;;;15.80;11.33;;;6.90;99.90;;;;;;4897696;29;20467;-67
2021/12/07 05:00:56;;;;;;;17.07;11.33;;;6.90;99.90;;;;;;4898281;29;20431;-67
2021/12/07 05:03:24;;;;;;;14.70;12.77;;;7.00;99.90;;;;;;4854778;29;1293138;-67
2021/12/07 05:05:52;;;;;;;15.33;11.93;;;7.10;99.90;;;;;;4898969;29;20470;-67
2021/12/07 05:08:33;;;;;;;15.00;12.00;;;7.10;99.90;;;;;;4899214;29;20404;-67
2021/12/07 05:13:37;;;;;;;18.47;13.03;;;7.10;99.90;;;;;;4898423;29;20414;-67
2021/12/07 05:23:52;;;;;;;18.00;12.10;;;7.10;99.90;;;;;;4898244;29;20376;-68
2021/12/07 05:24:20;;;;;;;15.33;12.67;;;7.20;99.90;;;;;;4898830;29;20431;-67
2021/12/07 05:37:48;;;;;;;17.37;13.23;;;7.50;99.90;;;;;;4897933;29;20530;-67
2021/12/07 05:40:21;;;;;;;20.83;13.33;;;7.50;99.90;;;;;;4898535;29;20429;-67
2021/12/07 05:42:48;;;;;;;20.33;14.30;;;7.50;99.90;;;;;;4897871;29;20407;-67
2021/12/07 05:45:24;;;;;;;20.93;15.10;;;7.60;99.90;;;;;;4898296;29;20466;-68
2021/12/07 05:47:50;;;;;;;18.00;13.63;;;7.60;99.90;;;;;;4897737;29;20410;-68
2021/12/07 05:50:20;;;;;;;22.07;14.70;;;7.60;99.90;;;;;;4898224;29;20517;-67
2021/12/07 05:52:46;;;;;;;18.87;13.60;;;7.70;99.90;;;;;;4897929;29;20496;-67
2021/12/07 05:55:12;;;;;;;25.63;15.40;;;7.70;99.90;;;;;;4898413;29;20523;-67
2021/12/07 05:57:38;;;;;;;23.13;15.33;;;7.60;99.90;;;;;;4897309;29;20427;-67
2021/12/07 06:00:08;;;;;;;20.10;14.97;;;7.60;99.90;;;;;;4898288;29;20548;-67
2021/12/07 06:02:34;;;;;;;23.40;14.73;;;7.50;99.90;;;;;;4897714;29;20591;-67
2021/12/07 06:05:00;;;;;;;18.00;13.93;;;7.50;99.90;;;;;;4898122;29;20432;-67
2021/12/07 06:07:25;;;;;;;21.47;14.80;;;7.50;99.90;;;;;;4898103;29;20234;-67
2021/12/07 06:09:51;;;;;;;22.47;14.67;;;7.60;99.90;;;;;;4880334;29;20197;-67
2021/12/07 06:12:17;;;;;;;21.30;14.07;;;7.60;99.90;;;;;;4897976;29;20178;-69
2021/12/07 06:14:44;;;;;;;19.17;13.73;;;7.60;99.90;;;;;;4897236;29;20213;-69
2021/12/07 06:17:11;;;;;;;24.83;13.57;;;7.60;99.90;;;;;;4912416;29;20427;-69
2021/12/07 06:19:37;;;;;;;20.10;13.80;;;7.60;99.90;;;;;;4897121;29;20454;-70
2021/12/07 06:22:04;;;;;;;19.00;13.53;;;7.60;99.90;;;;;;4898001;29;20522;-69
2021/12/07 06:24:29;;;;;;;16.03;13.20;;;7.60;99.90;;;;;;4897287;29;20747;-74
2021/12/07 06:26:55;;;;;;;19.47;13.87;;;7.60;99.90;;;;;;4896999;29;20457;-69
2021/12/07 06:29:21;;;;;;;23.83;13.47;;;7.60;99.90;;;;;;4897488;29;20831;-69
2021/12/07 06:31:46;;;;;;;20.53;13.00;;;7.60;99.90;;;;;;4896989;29;20323;-69
2021/12/07 06:34:12;;;;;;;20.93;12.90;;;7.70;99.90;;;;;;4897499;29;20191;-69
2021/12/07 06:36:39;;;;;;;19.60;12.70;;;7.60;99.90;;;;;;4896774;29;20194;-70
2021/12/07 06:39:06;;;;;;;20.50;12.57;;;7.60;99.90;;;;;;4897634;29;20193;-70
2021/12/07 06:41:33;;;;;;;18.80;13.10;;;7.60;99.90;;;;;;4897022;29;20443;-74
2021/12/07 06:43:59;;;;;;;21.13;14.10;;;7.70;99.90;;;;;;4880702;29;20483;-69
2021/12/07 06:46:25;;;;;;;24.47;13.80;;;7.70;99.90;;;;;;4897259;29;20462;-69
2021/12/07 06:48:51;;;;;;;23.03;13.27;;;7.70;99.90;;;;;;4896518;29;20633;-69
2021/12/07 06:51:16;;;;;;;18.40;12.57;;;7.80;99.90;;;;;;4910765;29;20189;-68
2021/12/07 06:53:42;;;;;;;17.40;13.77;;;7.80;99.90;;;;;;4896583;29;20183;-69
2021/12/07 06:56:09;;;;;;;17.90;13.50;;;7.90;99.90;;;;;;4897539;29;20649;-69
2021/12/07 06:58:36;;;;;;;19.83;13.43;;;7.90;99.90;;;;;;4896485;29;20438;-72
2021/12/07 07:01:06;;;;;;;19.90;13.10;;;7.80;99.90;;;;;;4897200;29;20474;-70
2021/12/07 07:03:33;;;;;;;21.90;13.10;;;7.90;99.90;;;;;;4896635;29;20474;-73
2021/12/07 07:05:59;;;;;;;20.57;12.97;;;7.90;99.90;;;;;;4896947;29;20470;-68
2021/12/07 07:08:24;;;;;;;22.47;14.20;;;7.90;99.90;;;;;;4896872;29;20911;-69
2021/12/07 07:10:50;;;;;;;15.27;12.60;;;7.90;99.90;;;;;;4879511;29;20450;-69
2021/12/07 07:13:16;;;;;;;15.80;12.00;;;7.90;99.90;;;;;;4880696;29;20186;-69
2021/12/07 07:15:42;;;;;;;18.00;12.60;;;8.00;99.90;;;;;;4896287;29;20434;-69
2021/12/07 07:18:08;;;;;;;16.40;11.73;;;8.00;99.90;;;;;;4897368;29;20181;-69
2021/12/07 07:20:35;;;;;;;17.40;11.87;;;8.00;99.90;;;;;;4896575;29;20427;-74
2021/12/07 07:23:00;;;;;;;15.80;11.37;;;8.00;99.90;;;;;;4896976;29;20466;-69
2021/12/07 07:25:26;;;;;;;16.50;11.73;;;8.00;99.90;;;;;;4896646;29;20892;-69
2021/12/07 07:27:52;;;;;;;16.70;10.17;;;8.00;99.90;;;;;;4896284;29;20825;-69
2021/12/07 07:30:18;;;;;;;14.40;10.07;;;8.00;99.90;;;;;;4896922;29;20182;-69
2021/12/07 07:32:46;;;;;;;17.40;12.63;;;8.00;99.90;;;;;;4879495;29;20271;-69
2021/12/07 07:35:13;;;;;;;14.57;12.17;;;8.00;99.90;;;;;;4896766;29;20432;-69
2021/12/07 07:37:39;;;;;;;19.33;11.00;;;8.10;99.90;;;;;;4896206;29;20571;-69
2021/12/07 07:40:08;;;;;;;16.20;11.23;;;8.10;99.90;;;;;;4879934;29;20777;-69
2021/12/07 07:42:34;;;;;;;15.03;10.17;;;8.10;99.90;;;;;;4896754;29;20419;-74
2021/12/07 07:45:00;;;;;;;14.93;11.10;;;8.10;99.90;;;;;;4879712;29;20580;-69
2021/12/07 07:47:25;;;;;;;16.07;10.93;;;8.20;99.90;;;;;;4896846;29;20646;-69
2021/12/07 07:49:51;;;;;;;17.03;10.93;;;8.20;99.90;;;;;;4896412;29;20414;-70
2021/12/07 07:52:17;;;;;;;16.00;11.37;;;8.20;99.90;;;;;;4896652;29;20195;-70
2021/12/07 07:54:43;;;;;;;16.77;10.60;;;8.30;99.90;;;;;;4896142;29;20588;-70
2021/12/07 07:57:08;;;;;;;17.10;11.20;;;8.30;99.90;;;;;;4896819;29;20273;-70
2021/12/07 07:59:36;;;;;;;18.20;11.30;;;8.30;99.90;;;;;;4896625;29;20187;-80
2021/12/07 08:02:02;;;;;;;12.57;11.23;;;8.30;99.90;;;;;;4899453;29;20427;-72
2021/12/07 08:04:28;;;;;;;18.20;11.37;;;8.60;99.90;;;;;;4884386;29;20558;-72
2021/12/07 08:06:54;;;;;;;14.23;10.67;;;9.00;99.90;;;;;;4900919;29;20589;-72
2021/12/07 08:09:20;;;;;;;17.70;10.63;;;9.60;99.90;;;;;;4901231;29;20247;-72
2021/12/07 08:11:45;;;;;;;12.00;10.47;;;10.10;99.90;;;;;;4915102;29;20183;-73
2021/12/07 08:14:11;;;;;;;12.90;10.73;;;10.60;99.90;;;;;;4900304;29;20183;-72
2021/12/07 08:16:38;;;;;;;12.53;10.60;;;11.10;99.90;;;;;;4883946;29;20187;-78
2021/12/07 08:19:04;;;;;;;13.40;11.30;;;11.40;99.90;;;;;;4883512;29;20184;-73
2021/12/07 08:21:30;;;;;;;12.20;9.83;;;11.70;99.30;;;;;;4914567;29;20416;-73
2021/12/07 08:23:56;;;;;;;11.20;8.57;;;12.00;99.20;;;;;;4899601;29;20950;-73
2021/12/07 08:26:23;;;;;;;10.90;8.13;;;12.30;98.40;;;;;;4900187;29;20468;-73
2021/12/07 08:28:51;;;;;;;14.30;9.43;;;12.60;97.10;;;;;;4899256;29;20412;-73
2021/12/07 08:31:17;;;;;;;16.37;9.67;;;12.80;96.10;;;;;;4883095;29;20415;-74
2021/12/07 08:33:43;;;;;;;12.10;9.40;;;13.00;95.40;;;;;;4899120;29;20440;-73
2021/12/07 08:36:09;;;;;;;11.83;8.67;;;13.20;94.50;;;;;;4899985;29;20427;-73
2021/12/07 08:38:35;;;;;;;10.57;8.70;;;13.30;94.30;;;;;;4899752;29;20842;-73
2021/12/07 08:41:01;;;;;;;13.27;10.70;;;13.40;93.40;;;;;;4882069;29;20984;-73
2021/12/07 08:43:30;;;;;;;13.53;8.50;;;13.40;93.00;;;;;;4898381;29;20461;-73
2021/12/07 08:45:59;;;;;;;40.77;29.13;;;13.60;93.00;;;;;;4898805;29;20225;-73
2021/12/07 08:48:25;;;;;;;360.23;218.63;;;13.70;92.40;;;;;;4899368;29;20768;-74
2021/12/07 08:50:52;;;;;;;18.10;14.13;;;13.70;92.00;;;;;;4898800;29;20411;-73
2021/12/07 08:53:19;;;;;;;15.73;9.80;;;13.90;92.50;;;;;;4899278;29;20442;-73
2021/12/07 09:01:20;;;;;;;9.80;8.97;;;13.80;90.70;;;;;;4899635;29;20432;-72
2021/12/07 09:03:46;;;;;;;12.37;9.40;;;13.40;90.00;;;;;;4898725;29;20516;-72
2021/12/07 09:06:13;;;;;;;10.97;9.87;;;13.10;90.30;;;;;;4899565;29;20464;-71
2021/12/07 09:08:42;;;;;;;11.43;10.23;;;12.70;90.70;;;;;;4899023;29;20452;-76
2021/12/07 09:11:11;;;;;;;20.07;10.83;;;12.20;91.30;;;;;;4899481;29;20480;-72
2021/12/07 09:13:37;;;;;;;12.40;11.03;;;11.80;92.20;;;;;;4898361;29;20459;-72
2021/12/07 09:16:03;;;;;;;13.33;11.00;;;11.30;93.20;;;;;;4881853;29;20437;-72
2021/12/07 09:18:30;;;;;;;12.50;10.60;;;11.00;94.40;;;;;;4898962;29;20467;-72
2021/12/07 09:20:56;;;;;;;17.63;11.27;;;10.80;95.10;;;;;;4898227;29;20511;-72
2021/12/07 09:23:23;;;;;;;15.97;11.37;;;10.60;95.70;;;;;;4899422;29;20411;-72
2021/12/07 09:25:49;;;;;;;16.30;11.07;;;10.50;96.30;;;;;;4898644;29;20493;-72
2021/12/07 09:28:16;;;;;;;17.50;10.97;;;10.30;97.00;;;;;;4899232;29;20430;-72
2021/12/07 09:30:42;;;;;;;19.27;11.60;;;10.20;97.40;;;;;;4898550;29;20417;-76
2021/12/07 09:33:08;;;;;;;13.30;11.13;;;10.00;97.80;;;;;;4913355;29;20459;-72
2021/12/07 09:35:35;;;;;;;12.27;10.97;;;10.00;98.20;;;;;;4898756;29;20432;-71
2021/12/07 09:38:02;;;;;;;17.50;10.30;;;9.90;99.30;;;;;;4898365;29;20214;-72
2021/12/07 09:40:28;;;;;;;13.17;9.80;;;9.80;99.10;;;;;;4899007;29;20477;-72
2021/12/07 09:42:56;;;;;;;14.30;9.77;;;9.60;99.40;;;;;;4898429;29;20522;-72
2021/12/07 09:45:23;;;;;;;11.03;9.30;;;9.50;99.50;;;;;;4881682;29;20823;-72
2021/12/07 09:47:48;;;;;;;12.90;9.60;;;9.50;99.80;;;;;;4897725;29;20416;-72
2021/12/07 09:50:20;;;;;;;12.13;10.40;;;9.40;99.90;;;;;;4912841;29;20419;-72
2021/12/07 09:52:48;;;;;;;12.43;10.30;;;9.40;99.90;;;;;;4897987;29;20246;-72
2021/12/07 09:55:14;;;;;;;12.40;9.20;;;9.40;99.90;;;;;;4898832;29;20451;-72
2021/12/07 09:57:41;;;;;;;13.77;10.70;;;9.30;99.90;;;;;;4898816;29;20566;-72
2021/12/07 10:00:10;;;;;;;10.70;9.60;;;9.20;99.90;;;;;;4912948;29;20791;-72
2021/12/07 10:02:35;;;;;;;12.60;8.97;;;9.10;99.90;;;;;;4881738;29;20791;-72
2021/12/07 10:05:01;;;;;;;12.87;10.90;;;9.10;99.90;;;;;;4897930;29;20836;-72
2021/12/07 10:07:27;;;;;;;15.37;10.20;;;9.00;99.90;;;;;;4898544;29;20186;-72
2021/12/07 10:09:53;;;;;;;10.93;9.50;;;9.00;99.90;;;;;;4897938;29;20183;-72
2021/12/07 10:12:22;;;;;;;16.33;10.13;;;8.90;99.90;;;;;;4898693;29;20620;-72
2021/12/07 10:14:48;;;;;;;12.40;9.47;;;8.90;99.90;;;;;;4897722;29;20473;-72
2021/12/07 10:17:19;;;;;;;14.20;8.93;;;8.90;99.90;;;;;;4898489;29;20581;-71
2021/12/07 10:19:45;;;;;;;11.70;9.07;;;8.80;99.90;;;;;;4897785;29;20431;-72
2021/12/07 10:22:18;;;;;;;11.90;9.77;;;8.80;99.90;;;;;;4898344;29;20459;-72
2021/12/07 10:24:48;;;;;;;16.17;9.60;;;8.60;99.90;;;;;;4897576;29;20438;-74
2021/12/07 10:27:36;;;;;;;14.60;9.80;;;8.60;99.90;;;;;;4898106;29;20997;-72
2021/12/07 10:30:07;;;;;;;13.70;9.80;;;9.10;99.90;;;;;;4897268;29;20442;-73
2021/12/07 10:32:33;;;;;;;12.50;9.70;;;9.60;99.90;;;;;;4898316;29;20419;-72
2021/12/07 10:34:59;;;;;;;11.20;9.27;;;10.10;99.90;;;;;;4897499;29;20426;-72
2021/12/07 10:37:26;;;;;;;14.23;9.50;;;10.60;99.40;;;;;;4898313;29;20183;-73
2021/12/07 10:39:55;;;;;;;12.47;9.43;;;11.10;98.50;;;;;;4897417;29;20422;-73
2021/12/07 10:42:26;;;;;;;12.53;10.10;;;11.40;97.20;;;;;;4897929;29;20460;-72
2021/12/07 10:44:53;;;;;;;21.30;12.27;;;11.70;96.40;;;;;;4897148;29;20442;-72
2021/12/07 10:47:23;;;;;;;12.60;9.53;;;12.00;95.50;;;;;;4897751;29;21003;-72
2021/12/07 10:49:56;;;;;;;12.23;9.57;;;12.30;95.10;;;;;;4897295;29;20888;-73
2021/12/07 10:52:34;;;;;;;11.60;10.50;;;12.50;94.00;;;;;;4897837;29;20406;-72
2021/12/07 10:55:16;;;;;;;10.27;9.10;;;12.80;93.20;;;;;;4897238;29;20415;-72
2021/12/07 10:57:51;;;;;;;12.30;9.77;;;13.00;92.30;;;;;;4897497;29;20412;-72
2021/12/07 11:00:29;;;;;;;18.90;11.90;;;13.00;92.00;;;;;;4897642;29;20431;-73
2021/12/07 11:03:06;;;;;;;15.27;10.70;;;13.10;92.30;;;;;;4896787;29;20478;-72
2021/12/07 11:06:01;;;;;;;14.10;10.83;;;13.20;92.00;;;;;;4897276;29;20596;-72
2021/12/07 11:08:33;;;;;;;13.07;10.87;;;13.50;91.60;;;;;;4897498;29;20409;-72
2021/12/07 11:10:58;;;;;;;12.50;10.17;;;13.70;91.30;;;;;;4880333;29;20417;-72
2021/12/07 11:13:35;;;;;;;14.90;12.13;;;13.80;90.20;;;;;;4897563;29;20431;-72
2021/12/07 11:16:07;;;;;;;15.80;11.20;;;13.80;89.70;;;;;;4897014;29;20470;-73
2021/12/07 11:18:36;;;;;;;13.50;11.07;;;14.00;90.20;;;;;;4897598;29;20399;-72
2021/12/07 11:21:16;;;;;;;11.57;10.13;;;13.90;89.10;;;;;;4897172;29;20522;-72
2021/12/07 11:23:52;;;;;;;17.40;10.20;;;13.90;90.00;;;;;;4897495;29;20507;-72
2021/12/07 11:31:51;;;;;;;16.50;9.97;;;14.20;91.40;;;;;;4897539;29;20510;-72
2021/12/07 11:34:29;;;;;;;17.03;10.80;;;14.70;88.80;;;;;;4897677;29;20416;-72
2021/12/07 11:36:56;;;;;;;11.70;9.53;;;14.90;85.80;;;;;;4897807;29;20404;-72
2021/12/07 11:39:51;;;;;;;11.20;9.10;;;15.00;84.90;;;;;;4901166;29;20496;-72
2021/12/07 11:42:30;;;;;;;14.63;9.27;;;15.20;84.90;;;;;;4899402;29;20489;-72
2021/12/07 11:44:59;;;;;;;11.93;9.70;;;15.40;81.50;;;;;;4900490;29;20405;-72
2021/12/07 11:47:25;;;;;;;11.73;9.30;;;15.40;81.90;;;;;;4900912;29;20436;-72
2021/12/07 11:49:51;;;;;;;14.70;10.17;;;15.10;81.20;;;;;;4900340;29;20781;-72
2021/12/07 11:52:16;;;;;;;16.93;8.60;;;15.10;80.60;;;;;;4900985;29;20427;-72
2021/12/07 11:54:43;;;;;;;10.77;8.33;;;15.00;79.20;;;;;;4900927;29;20405;-72
2021/12/07 11:57:13;;;;;;;15.53;8.63;;;14.90;80.00;;;;;;4899982;29;20194;-72
2021/12/07 11:59:40;;;;;;;14.17;10.47;;;14.90;81.70;;;;;;4900944;29;20757;-72
2021/12/07 12:02:06;;;;;;;16.70;9.47;;;15.00;79.30;;;;;;4900237;29;20490;-72
2021/12/07 12:04:32;;;;;;;12.60;9.50;;;14.90;79.80;;;;;;4900334;29;20551;-72
2021/12/07 12:06:59;;;;;;;9.60;8.50;;;14.60;80.80;;;;;;4900032;29;20293;-73
2021/12/07 12:09:26;;;;;;;10.33;8.53;;;14.40;83.60;;;;;;4900250;29;20942;-72
2021/12/07 12:12:16;;;;;;;12.17;9.40;;;13.70;85.20;;;;;;4898761;29;20453;-72
2021/12/07 12:15:17;;;;;;;16.87;9.13;;;13.20;85.10;;;;;;4899232;29;20493;-72
2021/12/07 12:18:34;;;;;;;13.17;8.43;;;13.20;91.70;;;;;;4913476;29;20784;-72
2021/12/07 12:20:59;;;;;;;10.53;7.70;;;12.50;86.40;;;;;;4867783;29;20427;-72
2021/12/07 12:23:50;;;;;;;12.77;8.63;;;12.50;92.10;;;;;;4896613;29;20761;-72
2021/12/07 12:26:24;;;;;;;13.90;7.23;;;12.30;92.10;;;;;;4900320;29;20210;-72
2021/12/07 12:28:51;;;;;;;11.17;7.87;;;12.20;90.50;;;;;;4900103;29;20392;-80
2021/12/07 12:31:19;;;;;;;10.27;7.00;;;12.00;91.80;;;;;;4883252;29;21577;-72
2021/12/07 12:33:56;;;;;;;10.27;7.23;;;11.90;90.50;;;;;;4900443;29;20420;-72
2021/12/07 12:36:24;;;;;;;7.43;6.30;;;12.00;93.60;;;;;;4900397;29;20830;-73
2021/12/07 12:39:00;;;;;;;9.10;6.50;;;12.00;92.00;;;;;;4899331;29;20770;-74
2021/12/07 12:41:26;;;;;;;7.73;6.40;;;12.10;93.70;;;;;;4900045;29;20422;-72
2021/12/07 12:43:59;;;;;;;9.73;6.03;;;12.40;91.70;;;;;;4899496;29;20498;-73
2021/12/07 12:46:25;;;;;;;11.87;6.43;;;12.30;90.00;;;;;;4883362;29;20449;-73
2021/12/07 12:48:57;;;;;;;10.33;6.43;;;11.70;90.00;;;;;;4898019;29;20427;-73
2021/12/07 12:51:26;;;;;;;11.53;6.67;;;11.20;90.30;;;;;;4899684;29;20915;-72
2021/12/07 12:53:54;;;;;;;12.23;6.20;;;11.10;91.80;;;;;;4899261;29;20420;-73
2021/12/07 12:56:29;;;;;;;11.37;6.47;;;10.60;95.30;;;;;;4899842;29;20885;-72
2021/12/07 12:58:57;;;;;;;6.97;6.00;;;10.30;93.10;;;;;;4899190;29;20760;-73
2021/12/07 13:01:33;;;;;;;10.13;8.40;;;10.40;94.20;;;;;;4899725;29;20507;-72
2021/12/07 13:04:09;;;;;;;9.07;7.77;;;10.30;93.60;;;;;;4899026;29;20551;-73
2021/12/07 13:06:53;;;;;;;7.50;5.70;;;10.40;94.10;;;;;;4899241;29;20453;-72
2021/12/07 13:09:19;;;;;;;7.50;4.80;;;10.10;93.40;;;;;;4899026;29;20412;-72
2021/12/07 13:11:56;;;;;;;6.57;4.90;;;10.30;94.40;;;;;;4899521;29;20956;-72
2021/12/07 13:14:21;;;;;;;6.63;5.70;;;10.20;95.50;;;;;;4899757;29;20188;-72
2021/12/07 13:17:02;;;;;;;8.40;4.67;;;10.40;95.80;;;;;;4899488;29;20429;-72
2021/12/07 13:19:29;;;;;;;7.73;4.07;;;10.20;93.50;;;;;;4899472;29;20213;-72
2021/12/07 13:22:09;;;;;;;5.57;4.03;;;9.60;93.70;;;;;;4898799;29;20408;-73
2021/12/07 13:24:39;;;;;;;7.30;4.00;;;9.50;97.20;;;;;;4899392;29;20753;-68
2021/12/07 13:27:11;;;;;;;5.47;3.90;;;9.90;96.60;;;;;;4898754;29;20452;-69
2021/12/07 13:29:44;;;;;;;4.93;4.43;;;9.90;94.80;;;;;;4899256;29;20416;-69
2021/12/07 13:32:10;;;;;;;6.73;4.83;;;10.00;93.80;;;;;;4898718;29;20485;-69
2021/12/07 13:34:38;;;;;;;4.90;4.40;;;9.90;94.40;;;;;;4899181;29;20414;-69
2021/12/07 13:37:11;;;;;;;7.87;4.43;;;10.00;93.60;;;;;;4898456;29;20425;-69
2021/12/07 13:39:39;;;;;;;8.00;4.07;;;10.00;93.60;;;;;;4899095;29;20452;-69
2021/12/07 13:42:16;;;;;;;5.70;5.30;;;9.70;93.70;;;;;;4898367;29;20421;-69
2021/12/07 13:44:48;;;;;;;5.50;5.00;;;9.50;94.60;;;;;;4899030;29;20391;-69
2021/12/07 13:47:19;;;;;;;7.00;3.90;;;9.50;94.40;;;;;;4897891;29;20871;-69
2021/12/07 13:50:07;;;;;;;6.23;4.70;;;9.50;94.70;;;;;;4898829;29;20459;-69
2021/12/07 13:52:36;;;;;;;8.90;4.47;;;9.50;94.60;;;;;;4897831;29;20492;-69
2021/12/07 13:55:06;;;;;;;7.00;4.80;;;9.40;94.70;;;;;;4898197;29;20417;-69
2021/12/07 13:57:35;;;;;;;9.43;3.97;;;9.20;95.10;;;;;;4898625;29;20427;-71
2021/12/07 14:00:01;;;;;;;12.00;6.27;;;9.20;95.50;;;;;;4897770;29;20743;-70
2021/12/07 14:02:27;;;;;;;5.63;3.90;;;9.10;95.60;;;;;;4898565;29;20427;-69
2021/12/07 14:05:03;;;;;;;5.30;4.07;;;9.00;95.80;;;;;;4898623;29;20176;-69
2021/12/07 14:07:31;;;;;;;7.87;4.60;;;9.00;95.90;;;;;;4898657;29;20451;-69
2021/12/07 14:10:09;;;;;;;8.93;4.10;;;8.90;96.30;;;;;;4897896;29;20419;-70
2021/12/07 14:12:35;;;;;;;6.53;4.63;;;8.80;96.50;;;;;;4898434;29;20392;-69
2021/12/07 14:15:16;;;;;;;6.00;5.40;;;8.80;96.60;;;;;;4897837;29;20546;-69
2021/12/07 14:17:47;;;;;;;10.43;4.50;;;8.90;96.50;;;;;;4898182;29;20187;-69
2021/12/07 14:20:13;;;;;;;6.40;4.33;;;8.90;96.60;;;;;;4897771;29;20479;-69
2021/12/07 14:22:45;;;;;;;6.50;4.00;;;9.00;96.50;;;;;;4898276;29;20416;-69
2021/12/07 14:25:17;;;;;;;5.37;4.30;;;9.00;96.20;;;;;;4897595;29;20436;-69